createdAt,value
2023-02-14T00:00:03.522Z,13.53
2023-02-14T00:02:34.784Z,13.53
2023-02-14T00:05:01.291Z,13.32
2023-02-14T00:07:27.700Z,13.45
2023-02-14T00:09:54.076Z,13.32
2023-02-14T00:12:20.558Z,13.37
2023-02-14T00:14:46.950Z,13.25
2023-02-14T00:17:13.372Z,13.10
2023-02-14T00:19:39.917Z,13.05
2023-02-14T00:22:06.326Z,13.05
2023-02-14T00:24:32.718Z,13.04
2023-02-14T00:26:59.161Z,13.03
2023-02-14T00:29:25.545Z,13.03
2023-02-14T00:31:52.020Z,13.01
2023-02-14T00:34:18.497Z,13.01
2023-02-14T00:36:44.917Z,13.02
2023-02-14T00:39:11.393Z,13.05
2023-02-14T00:41:37.896Z,13.04
2023-02-14T00:44:04.373Z,13.05
2023-02-14T00:46:30.796Z,12.95
2023-02-14T00:48:57.247Z,12.97
2023-02-14T00:51:23.703Z,13.00
2023-02-14T00:53:50.105Z,12.96
2023-02-14T00:56:16.531Z,12.88
2023-02-14T00:58:42.979Z,12.87
2023-02-14T01:01:09.432Z,12.87
2023-02-14T01:03:35.915Z,12.85
2023-02-14T01:06:02.312Z,12.90
2023-02-14T01:08:29.580Z,12.80
2023-02-14T01:10:56.027Z,12.65
2023-02-14T01:13:22.422Z,12.63
2023-02-14T01:15:48.814Z,12.61
2023-02-14T01:18:15.263Z,12.56
2023-02-14T01:20:41.656Z,12.54
2023-02-14T01:23:08.092Z,12.52
2023-02-14T01:25:34.543Z,12.50
2023-02-14T01:28:00.937Z,12.47
2023-02-14T01:30:27.396Z,12.46
2023-02-14T01:32:53.896Z,12.45
2023-02-14T01:35:20.490Z,12.42
2023-02-14T01:37:46.920Z,12.40
2023-02-14T01:40:13.544Z,12.38
2023-02-14T01:42:42.606Z,12.36
2023-02-14T01:45:08.993Z,12.26
2023-02-14T01:47:35.443Z,12.31
2023-02-14T01:50:01.874Z,12.29
2023-02-14T01:52:28.301Z,12.26
2023-02-14T01:54:54.761Z,12.24
2023-02-14T01:57:21.205Z,12.22
2023-02-14T01:59:47.592Z,12.18
2023-02-14T02:02:14.100Z,12.16
2023-02-14T02:04:40.569Z,12.14
2023-02-14T02:07:06.972Z,12.14
2023-02-14T02:09:33.409Z,12.12
2023-02-14T02:11:59.799Z,12.10
2023-02-14T02:14:26.216Z,12.10
2023-02-14T02:16:52.761Z,12.10
2023-02-14T02:19:19.209Z,12.35
2023-02-14T02:21:45.619Z,12.36
2023-02-14T02:24:12.154Z,12.24
2023-02-14T02:26:38.559Z,12.18
2023-02-14T02:29:05.070Z,12.15
2023-02-14T02:31:31.694Z,12.16
2023-02-14T02:33:58.268Z,12.15
2023-02-14T02:36:24.730Z,12.15
2023-02-14T02:38:51.855Z,12.16
2023-02-14T02:41:18.645Z,12.12
2023-02-14T02:43:45.056Z,12.07
2023-02-14T02:46:11.546Z,12.05
2023-02-14T02:48:38.003Z,12.04
2023-02-14T02:51:06.018Z,12.03
2023-02-14T02:53:32.448Z,12.03
2023-02-14T02:55:58.986Z,12.02
2023-02-14T02:58:25.456Z,12.01
2023-02-14T03:00:51.924Z,12.06
2023-02-14T03:03:21.252Z,12.00
2023-02-14T03:05:47.658Z,12.03
2023-02-14T03:08:16.082Z,12.15
2023-02-14T03:10:42.474Z,12.33
2023-02-14T03:13:09.176Z,12.57
2023-02-14T03:15:35.708Z,12.82
2023-02-14T03:18:02.180Z,13.05
2023-02-14T03:20:28.641Z,13.23
2023-02-14T03:22:57.071Z,13.40
2023-02-14T03:25:23.498Z,13.62
2023-02-14T03:27:49.915Z,13.81
2023-02-14T03:30:16.398Z,13.96
2023-02-14T03:32:42.812Z,14.09
2023-02-14T03:35:09.640Z,14.27
2023-02-14T03:37:36.151Z,14.47
2023-02-14T03:40:03.292Z,14.60
2023-02-14T03:42:29.942Z,14.73
2023-02-14T03:44:56.556Z,14.90
2023-02-14T03:47:23.095Z,15.07
2023-02-14T03:49:49.586Z,15.19
2023-02-14T03:52:16.157Z,15.30
2023-02-14T03:54:42.553Z,15.41
2023-02-14T03:57:08.935Z,15.60
2023-02-14T03:59:35.386Z,15.73
2023-02-14T04:02:01.852Z,15.82
2023-02-14T04:04:28.315Z,15.91
2023-02-14T04:06:54.777Z,16.06
2023-02-14T04:09:21.164Z,16.19
2023-02-14T04:11:47.693Z,16.27
2023-02-14T04:14:14.214Z,16.38
2023-02-14T04:16:40.658Z,16.52
2023-02-14T04:19:07.071Z,16.65
2023-02-14T04:21:33.552Z,16.73
2023-02-14T04:24:00.008Z,16.82
2023-02-14T04:26:26.399Z,16.95
2023-02-14T04:28:52.861Z,17.07
2023-02-14T04:31:19.393Z,17.18
2023-02-14T04:33:45.909Z,17.28
2023-02-14T04:36:12.429Z,17.40
2023-02-14T04:38:38.881Z,17.54
2023-02-14T04:41:05.350Z,17.62
2023-02-14T04:43:31.806Z,17.67
2023-02-14T04:45:58.288Z,17.80
2023-02-14T04:48:24.775Z,18.00
2023-02-14T04:50:51.252Z,18.26
2023-02-14T04:53:17.721Z,18.52
2023-02-14T04:55:44.260Z,18.79
2023-02-14T04:58:10.719Z,19.05
2023-02-14T05:00:37.181Z,19.34
2023-02-14T05:03:03.673Z,19.61
2023-02-14T05:05:30.207Z,19.86
2023-02-14T05:07:56.709Z,20.09
2023-02-14T05:10:23.231Z,20.30
2023-02-14T05:12:49.808Z,20.49
2023-02-14T05:15:16.311Z,20.55
2023-02-14T05:17:42.784Z,20.60
2023-02-14T05:20:09.261Z,20.67
2023-02-14T05:22:35.729Z,20.80
2023-02-14T05:25:02.235Z,20.88
2023-02-14T05:27:28.933Z,20.90
2023-02-14T05:29:55.444Z,20.99
2023-02-14T05:32:21.989Z,21.10
2023-02-14T05:34:48.487Z,21.18
2023-02-14T05:37:14.934Z,21.19
2023-02-14T05:39:41.368Z,21.24
2023-02-14T05:42:12.249Z,21.32
2023-02-14T05:44:38.724Z,21.38
2023-02-14T05:47:05.157Z,21.43
2023-02-14T05:49:31.700Z,21.47
2023-02-14T05:51:58.171Z,21.55
2023-02-14T05:54:24.673Z,21.65
2023-02-14T05:56:51.179Z,21.67
2023-02-14T05:59:17.626Z,21.72
2023-02-14T06:01:44.115Z,21.81
2023-02-14T06:04:10.688Z,21.94
2023-02-14T06:06:37.163Z,21.95
2023-02-14T06:09:05.109Z,21.97
2023-02-14T06:11:31.669Z,22.09
2023-02-14T06:13:58.130Z,22.24
2023-02-14T06:16:24.636Z,22.29
2023-02-14T06:18:51.230Z,22.30
2023-02-14T06:21:17.697Z,22.40
2023-02-14T06:23:44.212Z,22.51
2023-02-14T06:26:10.741Z,22.57
2023-02-14T06:28:37.227Z,22.56
2023-02-14T06:31:04.114Z,22.60
2023-02-14T06:33:30.907Z,22.71
2023-02-14T06:35:57.380Z,22.78
2023-02-14T06:38:23.825Z,22.80
2023-02-14T06:40:50.405Z,22.85
2023-02-14T06:43:16.838Z,22.94
2023-02-14T06:45:43.308Z,23.01
2023-02-14T06:48:09.830Z,23.00
2023-02-14T06:50:36.289Z,23.04
2023-02-14T06:53:02.693Z,23.13
2023-02-14T06:55:29.159Z,23.21
2023-02-14T06:57:55.588Z,23.21
2023-02-14T07:00:22.035Z,23.21
2023-02-14T07:02:48.568Z,23.27
2023-02-14T07:05:15.084Z,23.35
2023-02-14T07:07:41.538Z,23.37
2023-02-14T07:10:08.030Z,23.38
2023-02-14T07:12:34.460Z,23.45
2023-02-14T07:15:00.883Z,23.34
2023-02-14T07:17:27.383Z,23.11
2023-02-14T07:19:53.858Z,23.08
2023-02-14T07:22:20.314Z,23.14
2023-02-14T07:24:46.808Z,23.23
2023-02-14T07:27:13.249Z,23.26
2023-02-14T07:29:39.678Z,23.23
2023-02-14T07:32:06.328Z,23.26
2023-02-14T07:34:32.827Z,23.31
2023-02-14T07:36:59.240Z,23.35
2023-02-14T07:39:25.730Z,23.30
2023-02-14T07:41:52.159Z,23.32
2023-02-14T07:44:19.314Z,23.41
2023-02-14T07:46:45.797Z,23.49
2023-02-14T07:49:12.228Z,23.52
2023-02-14T07:51:38.652Z,23.53
2023-02-14T07:54:05.129Z,23.54
2023-02-14T07:56:31.589Z,23.56
2023-02-14T07:58:58.060Z,23.54
2023-02-14T08:01:24.586Z,23.50
2023-02-14T08:03:51.012Z,23.51
2023-02-14T08:06:17.479Z,23.55
2023-02-14T08:08:43.971Z,23.51
2023-02-14T08:11:10.389Z,23.48
2023-02-14T08:13:36.852Z,23.50
2023-02-14T08:16:03.385Z,23.55
2023-02-14T08:18:29.852Z,23.37
2023-02-14T08:20:56.317Z,22.67
2023-02-14T08:23:22.807Z,22.61
2023-02-14T08:25:49.234Z,22.78
2023-02-14T08:28:15.658Z,22.94
2023-02-14T08:30:42.163Z,23.00
2023-02-14T08:33:08.600Z,23.01
2023-02-14T08:35:34.999Z,23.17
2023-02-14T08:38:01.499Z,23.31
2023-02-14T08:40:27.907Z,23.34
2023-02-14T08:42:54.320Z,23.36
2023-02-14T08:45:20.848Z,23.43
2023-02-14T08:47:47.248Z,23.51
2023-02-14T08:50:13.675Z,23.56
2023-02-14T08:52:40.171Z,23.52
2023-02-14T08:55:06.646Z,23.57
2023-02-14T08:57:33.178Z,23.64
2023-02-14T08:59:59.783Z,23.69
2023-02-14T09:02:26.251Z,23.68
2023-02-14T09:04:52.750Z,23.67
2023-02-14T09:07:19.237Z,23.73
2023-02-14T09:09:45.662Z,23.48
2023-02-14T09:12:12.235Z,23.74
2023-02-14T09:14:38.762Z,23.71
2023-02-14T09:17:05.239Z,23.77
2023-02-14T09:19:31.678Z,23.80
2023-02-14T09:21:58.149Z,23.80
2023-02-14T09:24:24.573Z,23.75
2023-02-14T09:26:51.013Z,23.79
2023-02-14T09:29:17.501Z,23.85
2023-02-14T09:31:44.008Z,23.87
2023-02-14T09:34:10.508Z,23.81
2023-02-14T09:36:36.989Z,23.82
2023-02-14T09:39:03.443Z,23.89
2023-02-14T09:41:29.854Z,23.92
2023-02-14T09:43:56.422Z,23.89
2023-02-14T09:46:22.927Z,23.86
2023-02-14T09:48:49.368Z,23.91
2023-02-14T09:51:15.878Z,23.96
2023-02-14T09:53:42.303Z,23.95
2023-02-14T09:56:08.748Z,23.91
2023-02-14T09:58:35.738Z,23.91
2023-02-14T10:01:02.506Z,23.97
2023-02-14T10:03:29.119Z,23.97
2023-02-14T10:05:55.763Z,23.93
2023-02-14T10:08:22.188Z,23.95
2023-02-14T10:10:48.616Z,24.01
2023-02-14T10:13:15.143Z,24.04
2023-02-14T10:15:41.622Z,23.98
2023-02-14T10:18:08.088Z,23.98
2023-02-14T10:20:34.569Z,24.08
2023-02-14T10:23:01.187Z,24.13
2023-02-14T10:25:27.664Z,24.11
2023-02-14T10:27:54.165Z,24.11
2023-02-14T10:30:20.685Z,24.11
2023-02-14T10:32:47.132Z,24.17
2023-02-14T10:35:13.605Z,24.21
2023-02-14T10:37:40.098Z,24.18
2023-02-14T10:40:06.512Z,24.16
2023-02-14T10:42:33.000Z,24.25
2023-02-14T10:44:59.458Z,24.32
2023-02-14T10:47:25.916Z,24.30
2023-02-14T10:49:52.417Z,24.28
2023-02-14T10:52:18.868Z,24.21
2023-02-14T10:54:45.274Z,24.16
2023-02-14T10:57:11.769Z,24.05
2023-02-14T10:59:38.174Z,23.95
2023-02-14T11:02:04.572Z,23.95
2023-02-14T11:04:31.146Z,24.01
2023-02-14T11:06:57.551Z,24.04
2023-02-14T11:09:23.987Z,24.03
2023-02-14T11:11:50.467Z,23.98
2023-02-14T11:14:17.427Z,23.92
2023-02-14T11:16:44.674Z,23.87
2023-02-14T11:19:11.181Z,23.86
2023-02-14T11:21:37.612Z,23.80
2023-02-14T11:24:04.038Z,23.13
2023-02-14T11:26:30.498Z,22.65
2023-02-14T11:28:57.008Z,22.61
2023-02-14T11:31:23.528Z,22.73
2023-02-14T11:33:50.038Z,22.82
2023-02-14T11:36:16.474Z,22.86
2023-02-14T11:38:42.943Z,22.86
2023-02-14T11:41:09.419Z,22.54
2023-02-14T11:43:35.851Z,22.35
2023-02-14T11:46:02.324Z,22.46
2023-02-14T11:48:38.333Z,22.57
2023-02-14T11:51:05.513Z,22.62
2023-02-14T11:53:31.999Z,22.61
2023-02-14T11:55:58.442Z,22.57
2023-02-14T11:58:24.893Z,22.57
2023-02-14T12:00:51.390Z,22.65
2023-02-14T12:03:17.845Z,22.75
2023-02-14T12:05:44.298Z,22.76
2023-02-14T12:08:10.794Z,22.75
2023-02-14T12:10:37.255Z,22.70
2023-02-14T12:13:03.700Z,22.49
2023-02-14T12:15:30.253Z,22.65
2023-02-14T12:17:56.698Z,22.72
2023-02-14T12:20:23.141Z,22.74
2023-02-14T12:22:49.621Z,22.71
2023-02-14T12:25:16.029Z,22.66
2023-02-14T12:27:42.457Z,22.59
2023-02-14T12:30:08.971Z,22.59
2023-02-14T12:32:35.426Z,22.63
2023-02-14T12:35:01.855Z,23.05
2023-02-14T12:37:28.352Z,23.15
2023-02-14T12:39:54.780Z,23.14
2023-02-14T12:42:21.187Z,23.10
2023-02-14T12:44:47.687Z,23.11
2023-02-14T12:47:14.130Z,22.63
2023-02-14T12:49:40.560Z,22.56
2023-02-14T12:52:07.050Z,22.48
2023-02-14T12:54:33.494Z,22.40
2023-02-14T12:56:59.941Z,22.31
2023-02-14T12:59:26.439Z,22.32
2023-02-14T13:01:52.900Z,22.37
2023-02-14T13:04:19.360Z,22.41
2023-02-14T13:06:46.128Z,22.31
2023-02-14T13:09:12.580Z,22.21
2023-02-14T13:11:38.993Z,22.19
2023-02-14T13:14:05.525Z,22.71
2023-02-14T13:16:31.993Z,22.85
2023-02-14T13:18:58.436Z,22.38
2023-02-14T13:21:24.931Z,22.25
2023-02-14T13:23:51.422Z,22.15
2023-02-14T13:26:17.858Z,22.20
2023-02-14T13:28:44.338Z,22.28
2023-02-14T13:31:10.851Z,22.41
2023-02-14T13:33:37.342Z,22.28
2023-02-14T13:36:03.831Z,22.23
2023-02-14T13:38:30.460Z,22.22
2023-02-14T13:40:56.930Z,22.16
2023-02-14T13:43:23.416Z,22.09
2023-02-14T13:45:49.818Z,22.03
2023-02-14T13:48:16.225Z,22.00
2023-02-14T13:50:42.671Z,21.97
2023-02-14T13:53:09.284Z,21.90
2023-02-14T13:55:35.683Z,21.85
2023-02-14T13:58:02.211Z,21.77
2023-02-14T14:00:28.650Z,21.69
2023-02-14T14:02:55.103Z,21.62
2023-02-14T14:05:21.569Z,21.53
2023-02-14T14:07:47.962Z,21.48
2023-02-14T14:10:14.372Z,21.43
2023-02-14T14:12:40.926Z,21.38
2023-02-14T14:15:07.327Z,21.32
2023-02-14T14:17:33.866Z,21.26
2023-02-14T14:20:00.352Z,21.19
2023-02-14T14:22:26.781Z,21.13
2023-02-14T14:24:53.198Z,21.08
2023-02-14T14:27:19.710Z,21.02
2023-02-14T14:29:46.127Z,20.94
2023-02-14T14:32:12.923Z,20.89
2023-02-14T14:34:39.527Z,20.85
2023-02-14T14:37:06.013Z,20.79
2023-02-14T14:39:32.537Z,20.74
2023-02-14T14:41:59.011Z,20.66
2023-02-14T14:44:25.480Z,20.61
2023-02-14T14:46:51.904Z,20.54
2023-02-14T14:49:18.432Z,20.49
2023-02-14T14:51:44.930Z,20.41
2023-02-14T14:54:11.376Z,20.35
2023-02-14T14:56:37.856Z,20.28
2023-02-14T14:59:04.287Z,20.21
2023-02-14T15:01:30.737Z,20.15
2023-02-14T15:03:57.253Z,20.08
2023-02-14T15:06:23.682Z,20.00
2023-02-14T15:08:50.118Z,19.95
2023-02-14T15:11:16.572Z,19.87
2023-02-14T15:13:43.013Z,19.81
2023-02-14T15:16:09.451Z,19.74
2023-02-14T15:18:35.900Z,19.67
2023-02-14T15:21:02.836Z,19.62
2023-02-14T15:23:29.492Z,19.59
2023-02-14T15:25:56.045Z,19.52
2023-02-14T15:28:22.490Z,19.44
2023-02-14T15:30:48.998Z,19.39
2023-02-14T15:33:15.543Z,19.35
2023-02-14T15:35:41.952Z,19.30
2023-02-14T15:38:08.395Z,19.25
2023-02-14T15:40:34.965Z,19.20
2023-02-14T15:43:01.441Z,19.16
2023-02-14T15:45:27.966Z,19.09
2023-02-14T15:47:54.475Z,19.05
2023-02-14T15:50:20.881Z,19.00
2023-02-14T15:52:47.264Z,18.95
2023-02-14T15:55:13.911Z,18.92
2023-02-14T15:57:40.423Z,18.90
2023-02-14T16:00:06.843Z,18.88
2023-02-14T16:02:38.567Z,18.82
2023-02-14T16:05:04.997Z,18.77
2023-02-14T16:07:31.446Z,18.72
2023-02-14T16:09:57.973Z,18.67
2023-02-14T16:12:24.609Z,18.62
2023-02-14T16:14:51.076Z,18.59
2023-02-14T16:17:17.633Z,18.54
2023-02-14T16:19:44.096Z,18.53
2023-02-14T16:22:10.539Z,18.46
2023-02-14T16:24:36.998Z,18.43
2023-02-14T16:27:03.383Z,18.37
2023-02-14T16:29:29.760Z,18.35
2023-02-14T16:32:14.705Z,18.29
2023-02-14T16:34:42.370Z,18.25
2023-02-14T16:37:08.863Z,18.22
2023-02-14T16:39:35.305Z,18.20
2023-02-14T16:42:01.726Z,18.15
2023-02-14T16:44:28.225Z,18.12
2023-02-14T16:46:54.605Z,18.06
2023-02-14T16:49:21.006Z,18.01
2023-02-14T16:51:47.441Z,17.96
2023-02-14T16:54:13.821Z,17.91
2023-02-14T16:56:40.203Z,17.86
2023-02-14T16:59:06.681Z,17.83
2023-02-14T17:01:33.144Z,17.79
2023-02-14T17:03:59.710Z,17.75
2023-02-14T17:06:26.246Z,17.70
2023-02-14T17:08:52.690Z,17.65
2023-02-14T17:11:19.123Z,17.61
2023-02-14T17:13:45.656Z,17.56
2023-02-14T17:16:12.149Z,17.52
2023-02-14T17:18:38.676Z,17.48
2023-02-14T17:21:05.170Z,17.44
2023-02-14T17:23:31.643Z,17.40
2023-02-14T17:25:58.090Z,17.36
2023-02-14T17:28:24.538Z,17.32
2023-02-14T17:30:51.066Z,17.26
2023-02-14T17:33:17.591Z,17.23
2023-02-14T17:35:44.088Z,17.18
2023-02-14T17:38:10.585Z,17.15
2023-02-14T17:40:36.966Z,17.11
2023-02-14T17:43:03.461Z,17.06
2023-02-14T17:45:29.919Z,17.02
2023-02-14T17:47:56.398Z,16.98
2023-02-14T17:50:22.892Z,16.95
2023-02-14T17:52:49.278Z,16.90
2023-02-14T17:55:15.696Z,16.85
2023-02-14T17:57:42.138Z,16.80
2023-02-14T18:00:11.306Z,16.77
2023-02-14T18:02:40.805Z,16.71
2023-02-14T18:05:07.397Z,16.67
2023-02-14T18:07:33.890Z,16.64
2023-02-14T18:10:00.419Z,16.60
2023-02-14T18:12:26.952Z,16.56
2023-02-14T18:14:53.392Z,16.53
2023-02-14T18:17:19.886Z,16.50
2023-02-14T18:19:46.495Z,16.46
2023-02-14T18:22:12.914Z,16.43
2023-02-14T18:24:39.305Z,16.41
2023-02-14T18:27:05.848Z,16.37
2023-02-14T18:29:32.343Z,16.36
2023-02-14T18:31:58.757Z,16.34
2023-02-14T18:34:25.222Z,16.30
2023-02-14T18:36:51.637Z,16.27
2023-02-14T18:39:18.072Z,16.25
2023-02-14T18:41:44.565Z,16.21
2023-02-14T18:44:11.034Z,16.17
2023-02-14T18:46:37.509Z,16.13
2023-02-14T18:49:04.027Z,16.09
2023-02-14T18:51:30.474Z,16.06
2023-02-14T18:53:56.951Z,16.04
2023-02-14T18:56:23.529Z,16.00
2023-02-14T18:58:49.975Z,15.96
2023-02-14T19:01:16.501Z,15.92
2023-02-14T19:03:43.080Z,15.90
2023-02-14T19:06:09.506Z,15.87
2023-02-14T19:08:35.998Z,15.84
2023-02-14T19:11:02.786Z,15.81
2023-02-14T19:13:29.332Z,15.77
2023-02-14T19:15:55.804Z,15.73
2023-02-14T19:18:24.188Z,15.70
2023-02-14T19:20:52.142Z,15.66
2023-02-14T19:23:18.619Z,15.63
2023-02-14T19:25:45.195Z,15.60
2023-02-14T19:28:11.682Z,15.55
2023-02-14T19:30:38.086Z,15.50
2023-02-14T19:33:04.635Z,15.47
2023-02-14T19:35:31.094Z,15.44
2023-02-14T19:37:57.582Z,15.41
2023-02-14T19:40:24.141Z,15.38
2023-02-14T19:42:50.561Z,15.34
2023-02-14T19:45:17.067Z,15.31
2023-02-14T19:47:47.333Z,15.28
2023-02-14T19:50:14.054Z,15.24
2023-02-14T19:52:40.514Z,15.20
2023-02-14T19:55:06.969Z,15.17
2023-02-14T19:57:33.460Z,15.12
2023-02-14T19:59:59.988Z,15.09
2023-02-14T20:02:26.587Z,14.94
2023-02-14T20:04:53.092Z,15.02
2023-02-14T20:07:19.542Z,14.98
2023-02-14T20:09:46.088Z,14.96
2023-02-14T20:12:12.550Z,14.95
2023-02-14T20:14:51.019Z,14.91
2023-02-14T20:17:18.318Z,14.88
2023-02-14T20:19:44.755Z,14.85
2023-02-14T20:22:11.171Z,14.84
2023-02-14T20:24:37.590Z,14.82
2023-02-14T20:27:04.084Z,14.79
2023-02-14T20:29:30.478Z,14.77
2023-02-14T20:31:56.926Z,14.75
2023-02-14T20:34:23.378Z,14.73
2023-02-14T20:36:49.777Z,14.72
2023-02-14T20:39:16.212Z,14.69
2023-02-14T20:41:42.623Z,14.66
2023-02-14T20:44:09.053Z,14.64
2023-02-14T20:46:35.564Z,14.61
2023-02-14T20:49:02.136Z,14.59
2023-02-14T20:51:28.533Z,14.56
2023-02-14T20:53:54.984Z,14.53
2023-02-14T20:56:21.421Z,14.49
2023-02-14T20:58:47.875Z,14.47
2023-02-14T21:01:14.365Z,14.43
2023-02-14T21:03:40.956Z,14.41
2023-02-14T21:06:07.395Z,14.37
2023-02-14T21:08:33.824Z,14.35
2023-02-14T21:11:00.520Z,14.34
2023-02-14T21:13:27.176Z,14.31
2023-02-14T21:15:53.617Z,14.28
2023-02-14T21:18:20.082Z,14.24
2023-02-14T21:20:46.514Z,14.24
2023-02-14T21:23:12.954Z,14.21
2023-02-14T21:25:39.505Z,14.18
2023-02-14T21:28:05.939Z,14.14
2023-02-14T21:30:32.358Z,14.10
2023-02-14T21:32:58.771Z,14.09
2023-02-14T21:35:25.228Z,14.04
2023-02-14T21:37:51.719Z,14.01
2023-02-14T21:40:18.177Z,13.98
2023-02-14T21:42:44.550Z,13.95
2023-02-14T21:45:10.979Z,13.92
2023-02-14T21:47:37.433Z,13.88
2023-02-14T21:50:03.813Z,13.86
2023-02-14T21:52:30.272Z,13.83
2023-02-14T21:54:56.748Z,13.80
2023-02-14T21:57:23.111Z,13.78
2023-02-14T21:59:49.584Z,13.75
2023-02-14T22:02:16.040Z,13.71
2023-02-14T22:04:42.411Z,13.69
2023-02-14T22:07:08.806Z,13.66
2023-02-14T22:09:35.290Z,13.62
2023-02-14T22:12:01.659Z,13.59
2023-02-14T22:14:28.119Z,13.57
2023-02-14T22:16:54.522Z,13.54
2023-02-14T22:19:20.908Z,13.53
2023-02-14T22:21:47.339Z,13.51
2023-02-14T22:24:13.741Z,13.48
2023-02-14T22:26:40.150Z,13.46
2023-02-14T22:29:06.589Z,13.45
2023-02-14T22:31:33.200Z,13.42
2023-02-14T22:33:59.680Z,13.43
2023-02-14T22:36:26.127Z,13.40
2023-02-14T22:38:52.581Z,13.38
2023-02-14T22:41:18.984Z,13.37
2023-02-14T22:43:45.439Z,13.35
2023-02-14T22:46:11.855Z,13.33
2023-02-14T22:48:38.327Z,13.30
2023-02-14T22:51:04.819Z,13.28
2023-02-14T22:53:31.192Z,13.25
2023-02-14T22:55:57.568Z,13.21
2023-02-14T22:58:24.007Z,13.18
2023-02-14T23:00:50.389Z,13.15
2023-02-14T23:03:16.798Z,13.12
2023-02-14T23:05:43.235Z,13.10
2023-02-14T23:08:09.615Z,13.07
2023-02-14T23:10:36.041Z,13.03
2023-02-14T23:13:02.477Z,13.01
2023-02-14T23:15:28.872Z,12.83
2023-02-14T23:17:55.273Z,12.95
2023-02-14T23:20:21.718Z,12.92
2023-02-14T23:22:48.097Z,12.90
2023-02-14T23:25:14.471Z,12.87
2023-02-14T23:27:40.902Z,12.83
2023-02-14T23:30:07.362Z,12.82
2023-02-14T23:32:33.759Z,12.78
2023-02-14T23:35:00.211Z,12.74
2023-02-14T23:37:26.611Z,12.72
2023-02-14T23:39:53.019Z,12.69
2023-02-14T23:42:19.449Z,12.66
2023-02-14T23:44:45.847Z,12.62
2023-02-14T23:47:12.217Z,12.58
2023-02-14T23:49:38.652Z,12.56
2023-02-14T23:52:05.047Z,12.52
2023-02-14T23:54:31.522Z,12.49
2023-02-14T23:56:58.027Z,12.46
2023-02-14T23:59:24.408Z,12.44
